Time;durP1;ratioP1;P1;durP2;ratioP2;P2;SDS_P1;SDS_P2;PMS_P1;PMS_P2;Temp;Humidity;BMP_temperature;BMP_pressure;BME280_temperature;BME280_humidity;BME280_pressure;Samples;Min_cycle;Max_cycle;Signal;HPM_P1;HPM_P2
2022/05/29 00:01:34;;;;;;;8.05;2.55;;;;;;;8.81;71.88;101641.09;5008621;28;20706;-90
2022/05/29 00:03:59;;;;;;;12.02;2.38;;;;;;;8.82;72.53;101650.81;5008740;28;20034;-90
2022/05/29 00:06:24;;;;;;;8.18;2.45;;;;;;;8.75;72.62;101642.19;5009017;28;20033;-92
2022/05/29 00:08:49;;;;;;;6.90;2.55;;;;;;;8.67;72.94;101641.53;5007617;28;20029;-92
2022/05/29 00:11:15;;;;;;;11.23;2.20;;;;;;;8.63;73.29;101639.88;5009339;28;20114;-90
2022/05/29 00:13:42;;;;;;;8.32;2.25;;;;;;;8.60;73.62;101634.66;5008323;28;20026;-91
2022/05/29 00:16:08;;;;;;;5.70;2.08;;;;;;;8.57;74.36;101637.41;5008822;28;20037;-92
2022/05/29 00:18:36;;;;;;;5.38;2.25;;;;;;;8.53;74.04;101631.34;5006469;28;20034;-91
2022/05/29 00:21:01;;;;;;;6.50;2.22;;;;;;;8.53;73.90;101633.09;5006872;28;20030;-91
2022/05/29 00:23:28;;;;;;;9.10;2.30;;;;;;;8.45;74.30;101636.00;5008585;28;20483;-91
2022/05/29 00:25:54;;;;;;;6.28;2.40;;;;;;;8.47;74.24;101628.84;5007532;28;20411;-90
2022/05/29 00:28:20;;;;;;;9.25;2.70;;;;;;;8.43;74.24;101621.91;5009466;28;20037;-90
2022/05/29 00:30:45;;;;;;;8.15;2.08;;;;;;;8.37;74.39;101633.56;5011634;28;20050;-90
2022/05/29 00:33:12;;;;;;;5.03;2.38;;;;;;;8.34;74.65;101624.78;5012712;28;20022;-90
2022/05/29 00:35:39;;;;;;;9.75;2.58;;;;;;;8.37;74.71;101627.41;5011928;28;20072;-92
2022/05/29 00:38:08;;;;;;;8.95;2.55;;;;;;;8.28;74.74;101617.91;5010896;28;20025;-90
2022/05/29 00:40:43;;;;;;;7.80;2.47;;;;;;;8.21;75.13;101611.88;4991347;28;20057;-91
2022/05/29 00:43:09;;;;;;;6.85;2.55;;;;;;;8.23;75.37;101618.03;4993191;28;20026;-91
2022/05/29 00:45:45;;;;;;;5.97;2.25;;;;;;;8.22;75.10;101618.06;4992758;28;20375;-90
2022/05/29 00:48:15;;;;;;;9.65;2.55;;;;;;;8.20;75.51;101623.41;4997858;28;20026;-90
2022/05/29 00:50:40;;;;;;;6.90;2.65;;;;;;;8.17;75.59;101612.88;5002081;28;20425;-90
2022/05/29 00:53:05;;;;;;;9.82;2.78;;;;;;;8.16;75.76;101619.13;5013493;28;20033;-90
2022/05/29 00:55:31;;;;;;;8.48;2.72;;;;;;;8.14;75.96;101614.75;5014766;28;20034;-91
2022/05/29 00:58:03;;;;;;;4.47;2.00;;;;;;;8.16;75.46;101608.50;5011612;28;20063;-90
2022/05/29 01:00:30;;;;;;;9.02;2.47;;;;;;;8.16;75.87;101605.00;5011879;28;20110;-90
2022/05/29 01:02:59;;;;;;;5.75;2.40;;;;;;;8.17;75.96;101604.94;5011250;28;20341;-91
2022/05/29 01:05:26;;;;;;;7.60;3.10;;;;;;;8.20;76.25;101602.19;5012075;28;20030;-90
2022/05/29 01:08:02;;;;;;;7.65;2.38;;;;;;;8.20;75.85;101590.72;5009085;28;20127;-92
2022/05/29 01:10:41;;;;;;;9.32;2.72;;;;;;;8.24;76.09;101590.59;5010585;28;20430;-92
2022/05/29 01:13:16;;;;;;;9.30;2.60;;;;;;;8.26;76.33;101582.56;5011472;28;20223;-91
2022/05/29 01:15:58;;;;;;;9.88;3.10;;;;;;;8.32;75.82;101578.88;5011284;28;20574;-90
2022/05/29 01:18:39;;;;;;;6.55;2.55;;;;;;;8.39;76.09;101580.47;5009911;28;20304;-91
2022/05/29 01:21:20;;;;;;;6.43;2.67;;;;;;;8.45;76.27;101578.50;5011445;28;20036;-90
2022/05/29 01:24:01;;;;;;;9.43;2.97;;;;;;;8.46;75.70;101579.38;5009196;28;20041;-90
2022/05/29 01:26:58;;;;;;;9.52;3.10;;;;;;;8.51;75.78;101584.53;5011337;28;20041;-91
2022/05/29 01:29:51;;;;;;;10.80;4.03;;;;;;;8.56;75.27;101577.28;5010817;28;20058;-90
2022/05/29 01:32:26;;;;;;;9.15;3.45;;;;;;;8.60;76.17;101570.97;5011493;28;20147;-91
2022/05/29 01:34:54;;;;;;;9.55;3.33;;;;;;;8.63;76.06;101574.41;5009726;28;20060;-90
2022/05/29 01:37:37;;;;;;;11.77;3.30;;;;;;;8.64;75.83;101552.25;5009486;28;20109;-92
2022/05/29 01:40:19;;;;;;;8.35;3.20;;;;;;;8.63;76.25;101560.28;5010881;28;20053;-91
2022/05/29 01:42:50;;;;;;;10.70;3.15;;;;;;;8.67;76.18;101561.91;5010672;28;20040;-91
2022/05/29 01:45:30;;;;;;;9.90;3.38;;;;;;;8.73;75.42;101564.38;5011627;28;20038;-90
2022/05/29 01:48:03;;;;;;;9.68;3.40;;;;;;;8.73;75.68;101562.56;5009316;28;20101;-91
2022/05/29 01:50:35;;;;;;;7.57;3.20;;;;;;;8.70;75.97;101565.34;5011224;28;20030;-93
2022/05/29 01:53:40;;;;;;;8.35;2.97;;;;;;;8.69;75.18;101563.63;5010681;28;20166;-90
2022/05/29 01:56:14;;;;;;;7.82;3.22;;;;;;;8.65;76.29;101555.78;4949740;29;20046;-92
2022/05/29 01:58:44;;;;;;;6.88;3.47;;;;;;;8.69;76.30;101554.75;4948695;29;20035;-91
2022/05/29 02:01:12;;;;;;;8.70;3.17;;;;;;;8.71;76.40;101551.16;4950392;29;20043;-91
2022/05/29 02:03:45;;;;;;;6.18;3.13;;;;;;;8.76;76.08;101555.44;4949434;29;20035;-91
2022/05/29 02:06:16;;;;;;;;;;;;;;;8.84;74.13;101551.63;4950033;29;20046;-90
2022/05/29 02:08:59;;;;;;;10.13;3.15;;;;;;;8.84;75.39;101550.75;4948134;29;20394;-91
2022/05/29 02:11:28;;;;;;;9.25;3.40;;;;;;;8.84;75.85;101548.97;4950208;29;20070;-91
2022/05/29 02:14:01;;;;;;;19.13;4.05;;;;;;;8.86;75.49;101541.84;4933767;29;20039;-92
2022/05/29 02:16:39;;;;;;;10.15;3.70;;;;;;;8.90;75.21;101550.56;4951031;29;20102;-91
2022/05/29 02:19:26;;;;;;;10.50;3.50;;;;;;;8.89;74.88;101541.72;4949744;29;20039;-91
2022/05/29 02:21:59;;;;;;;7.88;3.50;;;;;;;8.81;75.48;101529.63;4948531;29;20042;-92
2022/05/29 02:24:33;;;;;;;7.72;3.00;;;;;;;8.80;75.68;101539.38;4949706;29;20520;-92
2022/05/29 02:27:06;;;;;;;9.20;3.15;;;;;;;8.78;75.93;101533.25;4975287;28;20038;-92
2022/05/29 02:29:32;;;;;;;6.60;3.03;;;;;;;8.79;75.98;101535.00;4990286;28;20042;-90
2022/05/29 02:32:21;;;;;;;7.25;3.45;;;;;;;8.76;75.86;101526.25;4990387;28;20495;-90
2022/05/29 02:35:02;;;;;;;9.48;3.38;;;;;;;8.79;76.33;101528.81;4989761;28;20504;-91
2022/05/29 02:37:32;;;;;;;7.70;3.08;;;;;;;8.75;76.25;101525.38;4998432;28;20050;-90
2022/05/29 02:40:16;;;;;;;9.73;3.40;;;;;;;8.78;75.33;101522.66;5009910;28;20447;-91
2022/05/29 02:42:47;;;;;;;;;;;;;;;8.83;74.75;101526.00;5010027;28;20037;-90
2022/05/29 02:45:44;;;;;;;5.53;3.00;;;;;;;8.78;75.32;101525.31;5010432;28;19913;-90
2022/05/29 02:48:21;;;;;;;9.55;2.95;;;;;;;8.70;76.04;101519.38;5008612;28;20037;-90
2022/05/29 02:50:57;;;;;;;8.10;3.40;;;;;;;8.66;76.31;101512.41;5008555;28;20131;-91
2022/05/29 02:53:24;;;;;;;7.28;2.80;;;;;;;8.67;76.31;101512.38;5010524;28;20109;-91
2022/05/29 02:55:50;;;;;;;5.72;2.65;;;;;;;8.66;76.69;101512.41;5010353;28;20124;-91
2022/05/29 02:58:24;;;;;;;9.93;3.03;;;;;;;8.66;76.73;101515.06;5009939;28;20026;-91
2022/05/29 03:01:04;;;;;;;11.43;3.35;;;;;;;8.66;76.57;101513.28;5011352;28;20026;-92
2022/05/29 03:03:36;;;;;;;5.50;2.88;;;;;;;8.61;76.65;101506.38;5011484;28;20052;-91
2022/05/29 03:06:30;;;;;;;11.27;3.58;;;;;;;8.64;76.49;101514.25;5010238;28;20415;-92
2022/05/29 03:09:38;;;;;;;10.23;3.72;;;;;;;8.61;76.60;101511.69;4928370;29;20503;-91
2022/05/29 03:12:19;;;;;;;6.40;3.28;;;;;;;8.52;77.27;101504.88;4929642;29;20237;-91
2022/05/29 03:15:02;;;;;;;6.65;2.97;;;;;;;8.43;77.15;101500.72;4928838;29;20118;-90
2022/05/29 03:17:43;;;;;;;10.55;3.08;;;;;;;8.47;77.25;101504.16;4928514;29;20130;-90
2022/05/29 03:20:19;;;;;;;10.95;3.35;;;;;;;8.40;77.71;101500.84;4929432;29;20075;-91
2022/05/29 03:23:03;;;;;;;7.57;3.50;;;;;;;8.43;77.42;101500.72;4929113;29;20099;-90
2022/05/29 03:25:39;;;;;;;7.63;3.35;;;;;;;8.38;77.37;101485.88;4929356;29;20449;-90
2022/05/29 03:28:10;;;;;;;8.90;3.05;;;;;;;8.41;77.78;101504.38;4927860;29;20044;-90
2022/05/29 03:30:39;;;;;;;15.23;4.22;;;;;;;8.39;77.95;101506.19;4929198;29;20044;-90
2022/05/29 03:33:07;;;;;;;9.52;3.50;;;;;;;8.39;77.71;101499.09;4928808;29;20505;-92
2022/05/29 03:35:54;;;;;;;8.60;3.28;;;;;;;8.42;77.89;101493.69;4929052;29;20071;-90
2022/05/29 03:38:21;;;;;;;8.27;3.28;;;;;;;8.45;77.99;101490.97;4902366;29;20044;-92
2022/05/29 03:40:48;;;;;;;7.95;2.90;;;;;;;8.47;77.85;101493.56;4909440;29;20095;-92
2022/05/29 03:43:13;;;;;;;10.50;3.42;;;;;;;8.43;77.59;101484.81;4910122;29;20441;-90
2022/05/29 03:45:39;;;;;;;7.40;2.80;;;;;;;8.52;77.02;101488.97;4942171;28;20077;-90
2022/05/29 03:48:05;;;;;;;10.85;3.30;;;;;;;8.52;77.56;101485.44;5004028;28;20076;-92
2022/05/29 03:50:31;;;;;;;9.70;3.47;;;;;;;8.56;76.93;101479.97;5008493;28;20407;-92
2022/05/29 03:52:56;;;;;;;8.35;3.42;;;;;;;8.61;76.98;101479.84;5008834;28;20022;-91
2022/05/29 03:55:24;;;;;;;6.93;3.13;;;;;;;8.63;76.68;101480.66;5008983;28;20087;-89
2022/05/29 03:57:50;;;;;;;7.93;3.08;;;;;;;8.64;76.85;101471.78;5006206;28;20115;-89
2022/05/29 04:00:17;;;;;;;10.20;3.53;;;;;;;8.65;76.37;101479.72;5008785;28;20037;-91
2022/05/29 04:02:43;;;;;;;9.80;2.90;;;;;;;8.67;76.20;101479.66;5008177;28;20101;-89
2022/05/29 04:05:11;;;;;;;6.38;2.75;;;;;;;8.67;76.38;101471.69;5007717;28;20024;-92
2022/05/29 04:13:05;;;;;;;6.85;3.05;;;;;;;8.64;75.82;101462.03;5008953;28;20040;-90
2022/05/29 04:15:30;;;;;;;10.23;3.72;;;;;;;8.70;75.97;101472.47;5007561;28;20030;-91
2022/05/29 04:17:56;;;;;;;10.25;2.78;;;;;;;8.73;75.94;101476.78;5007382;28;20034;-90
2022/05/29 04:20:21;;;;;;;6.22;2.88;;;;;;;8.81;75.53;101474.75;5010439;28;20025;-91
2022/05/29 04:22:46;;;;;;;9.60;3.15;;;;;;;8.84;75.45;101471.13;5009774;28;20084;-91
2022/05/29 04:25:12;;;;;;;10.52;3.60;;;;;;;8.87;75.52;101465.72;5009906;28;20392;-91
2022/05/29 04:27:38;;;;;;;13.48;2.97;;;;;;;8.92;75.67;101477.06;5007323;28;20026;-91
2022/05/29 04:30:05;;;;;;;11.23;3.22;;;;;;;8.94;75.38;101473.41;5008602;28;20046;-90
2022/05/29 04:35:14;;;;;;;7.03;3.10;;;;;;;9.03;75.21;101471.34;5008777;28;20048;-92
2022/05/29 04:37:39;;;;;;;10.27;3.00;;;;;;;8.93;75.42;101462.84;5007481;28;20025;-94
2022/05/29 04:40:05;;;;;;;9.40;2.90;;;;;;;8.98;75.50;101471.50;5009285;28;20021;-91
2022/05/29 04:42:31;;;;;;;8.75;3.38;;;;;;;9.04;76.24;101475.78;5008203;28;20045;-92
2022/05/29 04:44:56;;;;;;;10.52;3.20;;;;;;;9.05;77.13;101472.19;5006980;28;20058;-92
2022/05/29 04:47:21;;;;;;;12.32;3.90;;;;;;;9.00;78.63;101466.19;5007746;28;20034;-91
2022/05/29 04:49:47;;;;;;;9.13;2.95;;;;;;;8.89;78.65;101467.38;5008259;28;20025;-93
2022/05/29 04:52:13;;;;;;;9.55;3.03;;;;;;;8.77;79.47;101469.59;5009430;28;20052;-91
2022/05/29 04:54:39;;;;;;;8.60;3.58;;;;;;;8.75;80.13;101480.28;5008979;28;20034;-93
2022/05/29 04:57:06;;;;;;;8.32;3.25;;;;;;;8.66;80.99;101480.56;5008574;28;20061;-91
2022/05/29 04:59:31;;;;;;;10.93;3.40;;;;;;;8.60;80.84;101480.75;5008460;28;20030;-91
2022/05/29 05:02:00;;;;;;;11.13;3.17;;;;;;;8.51;81.98;101487.22;5010438;28;20080;-91
2022/05/29 05:04:26;;;;;;;8.93;3.60;;;;;;;8.39;83.28;101477.00;5012802;28;20251;-94
2022/05/29 05:06:58;;;;;;;9.82;3.67;;;;;;;8.36;85.30;101479.72;5013807;28;20438;-93
2022/05/29 05:09:23;;;;;;;7.75;3.60;;;;;;;8.18;86.85;101474.06;5012110;28;20030;-92
2022/05/29 05:11:51;;;;;;;7.57;3.15;;;;;;;8.02;86.52;101474.59;5009484;28;20080;-92
2022/05/29 05:14:16;;;;;;;9.02;4.32;;;;;;;7.99;88.78;101472.91;5010381;28;20029;-92
2022/05/29 05:16:42;;;;;;;13.05;3.80;;;;;;;7.95;88.06;101472.13;5009954;28;20295;-91
2022/05/29 05:19:07;;;;;;;6.82;3.72;;;;;;;7.95;89.16;101460.66;5011810;28;20026;-93
2022/05/29 05:21:32;;;;;;;13.05;4.50;;;;;;;8.07;89.68;101470.91;5011796;28;20036;-94
2022/05/29 05:23:57;;;;;;;11.70;4.13;;;;;;;8.14;89.61;101466.25;5011823;28;20479;-93
2022/05/29 05:26:23;;;;;;;11.23;4.32;;;;;;;8.15;89.94;101457.38;5010605;28;20025;-94
2022/05/29 05:28:48;;;;;;;9.63;4.07;;;;;;;8.22;90.07;101453.63;5011338;28;20040;-92
2022/05/29 05:31:14;;;;;;;10.30;4.10;;;;;;;8.30;89.36;101454.25;5011922;28;20458;-93
2022/05/29 05:33:39;;;;;;;10.48;4.00;;;;;;;8.37;89.88;101461.16;5011221;28;20032;-93
2022/05/29 05:36:05;;;;;;;10.98;4.28;;;;;;;8.48;90.69;101455.50;5010777;28;20073;-92
2022/05/29 05:38:31;;;;;;;14.75;4.43;;;;;;;8.54;90.71;101460.59;5011798;28;20033;-93
2022/05/29 05:40:57;;;;;;;7.50;4.50;;;;;;;8.62;90.99;101455.06;5011426;28;20363;-90
2022/05/29 05:43:22;;;;;;;12.38;4.70;;;;;;;8.57;90.71;101449.00;5011045;28;20068;-91
2022/05/29 05:45:48;;;;;;;9.90;4.20;;;;;;;8.61;90.17;101454.19;5009374;28;20056;-92
2022/05/29 05:48:15;;;;;;;10.15;4.38;;;;;;;8.57;89.79;101449.00;5011850;28;20034;-92
2022/05/29 05:50:40;;;;;;;11.43;4.43;;;;;;;8.63;90.35;101455.00;5010970;28;20327;-91
2022/05/29 05:53:06;;;;;;;9.52;4.90;;;;;;;8.70;90.63;101453.03;5010401;28;20483;-93
2022/05/29 05:55:31;;;;;;;5.72;3.28;;;;;;;8.68;89.42;101449.53;5009356;28;20036;-93
2022/05/29 05:57:56;;;;;;;6.50;3.60;;;;;;;8.76;89.19;101452.81;5010950;28;20018;-94
2022/05/29 06:00:23;;;;;;;8.05;3.92;;;;;;;8.82;89.77;101449.97;5011587;28;20026;-91
2022/05/29 06:02:48;;;;;;;10.18;4.43;;;;;;;8.87;90.23;101448.00;5010248;28;20037;-92
2022/05/29 06:05:15;;;;;;;6.50;3.45;;;;;;;8.99;88.74;101449.38;5010993;28;20468;-93
2022/05/29 06:07:40;;;;;;;8.18;4.18;;;;;;;9.04;88.60;101444.78;5010451;28;20052;-93
2022/05/29 06:10:07;;;;;;;12.50;4.35;;;;;;;9.09;89.07;101447.25;5011306;28;20030;-92
2022/05/29 06:12:32;;;;;;;10.30;4.45;;;;;;;9.08;88.67;101451.72;5011577;28;20061;-93
2022/05/29 06:14:58;;;;;;;6.97;4.78;;;;;;;9.09;88.87;101444.59;5011015;28;20029;-92
2022/05/29 06:17:24;;;;;;;9.48;4.40;;;;;;;9.19;88.99;101448.66;5010096;28;20515;-90
2022/05/29 06:19:49;;;;;;;9.15;4.60;;;;;;;9.27;88.89;101448.38;5010425;28;20045;-91
2022/05/29 06:22:14;;;;;;;9.50;4.90;;;;;;;9.25;88.86;101442.28;5011075;28;20030;-91
2022/05/29 06:24:40;;;;;;;8.35;4.55;;;;;;;9.36;88.68;101446.25;5011313;28;20071;-92
2022/05/29 06:27:05;;;;;;;8.30;4.25;;;;;;;9.49;88.59;101449.38;5010573;28;20039;-92
2022/05/29 06:29:30;;;;;;;11.98;4.53;;;;;;;9.61;88.57;101451.53;5011979;28;20527;-91
2022/05/29 06:32:03;;;;;;;12.50;3.97;;;;;;;9.77;87.59;101449.19;5011520;28;20026;-92
2022/05/29 06:34:30;;;;;;;10.38;4.03;;;;;;;9.82;85.41;101456.97;5011160;28;20029;-91
2022/05/29 06:36:55;;;;;;;9.60;3.63;;;;;;;9.84;86.01;101458.66;5008366;28;20085;-92
2022/05/29 06:39:22;;;;;;;10.13;3.88;;;;;;;9.86;86.12;101454.16;5011096;28;20517;-92
2022/05/29 06:41:47;;;;;;;5.50;3.30;;;;;;;9.89;85.20;101451.38;5010304;28;20029;-93
2022/05/29 06:44:12;;;;;;;9.73;4.07;;;;;;;9.83;84.49;101456.94;5010875;28;20387;-93
2022/05/29 06:46:37;;;;;;;9.52;4.20;;;;;;;9.78;85.76;101456.25;5008734;28;20164;-92
2022/05/29 06:49:03;;;;;;;7.38;3.40;;;;;;;9.77;85.47;101453.63;5011518;28;20026;-91
2022/05/29 06:51:28;;;;;;;6.85;3.70;;;;;;;9.72;86.31;101449.34;5011678;28;20403;-92
2022/05/29 06:54:00;;;;;;;5.82;3.30;;;;;;;9.82;86.38;101459.63;5010324;28;20033;-92
2022/05/29 06:56:26;;;;;;;7.90;3.33;;;;;;;9.98;86.47;101452.81;5010326;28;20028;-92
2022/05/29 06:58:53;;;;;;;9.45;3.58;;;;;;;10.23;85.79;101455.38;5009550;28;20020;-93
2022/05/29 07:07:00;;;;;;;10.10;4.05;;;;;;;11.15;82.01;101468.44;5011311;28;20411;-93
2022/05/29 07:09:31;;;;;;;6.82;3.50;;;;;;;11.16;80.49;101456.88;5013998;28;20025;-93
2022/05/29 07:12:04;;;;;;;10.35;4.15;;;;;;;11.19;80.48;101455.84;5013741;28;20033;-93
2022/05/29 07:14:30;;;;;;;8.15;3.65;;;;;;;11.35;81.33;101451.59;5012559;28;20358;-93
2022/05/29 07:16:55;;;;;;;7.57;3.05;;;;;;;11.48;78.49;101450.09;5010378;28;20679;-92
2022/05/29 07:19:24;;;;;;;14.50;6.35;;;;;;;11.66;79.08;101452.84;5010312;28;20030;-94
2022/05/29 07:21:50;;;;;;;14.75;7.53;;;;;;;11.78;77.75;101451.44;5010046;28;20087;-92
2022/05/29 07:24:15;;;;;;;33.28;15.48;;;;;;;11.85;76.77;101437.78;5010696;28;20033;-93
2022/05/29 07:26:40;;;;;;;11.23;6.13;;;;;;;11.95;77.48;101435.53;5008595;28;20034;-92
2022/05/29 07:29:05;;;;;;;17.27;5.10;;;;;;;12.06;76.92;101440.38;5010029;28;20040;-92
2022/05/29 07:31:32;;;;;;;7.72;3.22;;;;;;;12.01;75.09;101432.59;5008693;28;20543;-92
2022/05/29 07:33:57;;;;;;;7.63;3.50;;;;;;;11.93;76.52;101435.63;5009764;28;20173;-92
2022/05/29 07:36:24;;;;;;;5.57;3.67;;;;;;;11.98;78.30;101442.53;5007178;28;20018;-92
2022/05/29 07:38:50;;;;;;;6.53;3.75;;;;;;;11.92;78.33;101443.72;5009531;28;20121;-93
2022/05/29 07:44:00;;;;;;;7.22;3.40;;;;;;;11.61;77.89;101437.06;4990125;28;20097;-93
2022/05/29 07:46:25;;;;;;;6.63;3.80;;;;;;;11.59;76.17;101436.28;5007229;28;20034;-92
2022/05/29 07:48:51;;;;;;;8.02;3.30;;;;;;;11.62;76.40;101436.16;5009433;28;20030;-94
2022/05/29 07:51:17;;;;;;;9.15;3.70;;;;;;;11.70;77.42;101433.13;5010020;28;20044;-92
2022/05/29 07:53:43;;;;;;;9.10;3.67;;;;;;;11.98;76.18;101437.22;5009205;28;20018;-92
2022/05/29 07:56:09;;;;;;;10.40;3.58;;;;;;;12.38;73.78;101441.50;5008548;28;20026;-91
2022/05/29 07:58:38;;;;;;;8.30;3.75;;;;;;;12.53;73.57;101439.88;5010227;28;20453;-93
2022/05/29 08:01:03;;;;;;;8.30;4.18;;;;;;;12.46;74.35;101426.84;5009735;28;20054;-94
2022/05/29 08:03:29;;;;;;;8.88;3.88;;;;;;;12.32;72.81;101437.31;5009569;28;20050;-93
2022/05/29 08:05:56;;;;;;;8.95;3.78;;;;;;;12.13;72.83;101431.16;5008472;28;20174;-93
2022/05/29 08:08:22;;;;;;;18.10;7.85;;;;;;;12.07;74.53;101426.09;5008095;28;20072;-92
2022/05/29 08:10:47;;;;;;;11.43;5.30;;;;;;;12.00;75.06;101421.97;5009456;28;20065;-93
2022/05/29 08:13:12;;;;;;;9.43;3.92;;;;;;;11.94;75.09;101424.00;5009620;28;20388;-93
2022/05/29 08:15:38;;;;;;;7.60;3.33;;;;;;;11.90;73.93;101419.75;5008862;28;20041;-95
2022/05/29 08:18:04;;;;;;;5.05;3.30;;;;;;;11.83;75.58;101421.00;5010304;28;20048;-93
2022/05/29 08:20:29;;;;;;;6.70;3.42;;;;;;;11.63;76.49;101423.69;5010014;28;20057;-93
2022/05/29 08:22:55;;;;;;;12.15;4.30;;;;;;;11.50;76.51;101422.53;5009275;28;20022;-94
2022/05/29 08:30:53;;;;;;;8.80;3.50;;;;;;;11.49;75.17;101418.97;5009045;28;20054;-93
2022/05/29 08:33:27;;;;;;;6.95;3.25;;;;;;;11.63;75.61;101418.34;5009793;28;20080;-93
2022/05/29 08:35:58;;;;;;;10.05;3.75;;;;;;;11.80;74.42;101418.44;5008352;28;20026;-94
2022/05/29 08:38:25;;;;;;;6.78;3.38;;;;;;;12.05;75.13;101414.66;5009175;28;20033;-92
2022/05/29 08:40:57;;;;;;;10.27;3.70;;;;;;;12.38;72.43;101423.69;5009070;28;20387;-92
2022/05/29 08:43:32;;;;;;;7.45;3.67;;;;;;;13.03;71.82;101415.06;5009470;28;20109;-94
2022/05/29 08:46:03;;;;;;;11.00;5.07;;;;;;;14.06;67.98;101411.28;5007542;28;20395;-93
2022/05/29 08:48:29;;;;;;;7.53;3.60;;;;;;;15.00;65.79;101409.38;5010537;28;20083;-94
2022/05/29 08:51:01;;;;;;;6.03;2.92;;;;;;;15.14;63.20;101416.59;5013296;28;20109;-94
2022/05/29 08:53:39;;;;;;;9.95;3.10;;;;;;;14.88;62.37;101408.31;5012513;28;20021;-92
2022/05/29 08:56:25;;;;;;;7.55;2.60;;;;;;;14.59;61.81;101407.38;5011930;28;20038;-92
2022/05/29 08:59:03;;;;;;;11.35;2.90;;;;;;;14.17;63.38;101402.63;5013069;28;20030;-93
2022/05/29 09:01:51;;;;;;;8.18;3.00;;;;;;;13.68;63.97;101402.72;5013201;28;20181;-94
2022/05/29 09:04:32;;;;;;;8.82;3.00;;;;;;;13.21;64.48;101398.09;5012168;28;20053;-91
2022/05/29 09:07:00;;;;;;;8.20;2.97;;;;;;;12.80;65.85;101408.25;5013128;28;20026;-93
2022/05/29 09:09:34;;;;;;;8.15;2.95;;;;;;;12.51;68.75;101404.38;5013321;28;20120;-93
2022/05/29 09:12:03;;;;;;;6.88;2.92;;;;;;;12.37;68.81;101405.06;5013858;28;20204;-94
2022/05/29 09:14:47;;;;;;;6.47;3.10;;;;;;;12.37;69.58;101400.59;5012754;28;20487;-92
2022/05/29 09:17:21;;;;;;;9.10;3.93;;;;;;;12.22;70.86;101401.34;5014711;28;20495;-94
2022/05/29 09:19:55;;;;;;;8.88;4.18;;;;;;;12.14;71.72;101398.19;5013825;28;20055;-94
2022/05/29 09:22:31;;;;;;;8.05;3.58;;;;;;;12.46;71.69;101385.94;5012092;28;20087;-92
2022/05/29 09:25:04;;;;;;;6.95;3.47;;;;;;;13.30;71.83;101388.75;5009550;28;20117;-93
2022/05/29 09:27:30;;;;;;;5.03;2.72;;;;;;;14.46;64.39;101379.50;5011728;28;20172;-92
2022/05/29 09:29:55;;;;;;;9.25;3.05;;;;;;;15.84;62.39;101371.97;5011126;28;20042;-92
2022/05/29 09:32:33;;;;;;;5.93;2.72;;;;;;;17.57;57.53;101375.47;5011303;28;20041;-94
2022/05/29 09:35:30;;;;;;;7.38;2.50;;;;;;;18.53;54.60;101370.19;5009036;28;20041;-93
2022/05/29 09:38:06;;;;;;;6.30;2.25;;;;;;;19.19;49.37;101363.28;4998438;28;20053;-92
2022/05/29 09:40:41;;;;;;;4.97;2.28;;;;;;;19.85;47.94;101366.09;4991654;28;20365;-94
2022/05/29 09:43:19;;;;;;;4.38;2.35;;;;;;;19.72;47.17;101362.69;4992430;28;20034;-93
2022/05/29 09:45:45;;;;;;;5.03;2.08;;;;;;;19.19;45.70;101370.50;5010021;28;20480;-92
2022/05/29 09:51:41;;;;;;;8.68;2.50;;;;;;;18.37;49.35;101370.50;5010676;28;20061;-92
2022/05/29 09:54:16;;;;;;;7.25;2.20;;;;;;;17.21;52.81;101374.41;4996365;28;20042;-94
2022/05/29 09:56:42;;;;;;;11.75;3.67;;;;;;;15.55;62.16;101380.97;5010247;28;20042;-88
2022/05/29 09:59:21;;;;;;;13.70;2.85;;;;;;;13.97;65.30;101378.81;5010249;28;20061;-87
2022/05/29 10:01:47;;;;;;;3.78;2.30;;;;;;;12.73;68.74;101372.97;5009162;28;20365;-90
2022/05/29 10:04:20;;;;;;;6.28;2.90;;;;;;;12.14;76.08;101366.16;5009294;28;20030;-91
2022/05/29 10:06:48;;;;;;;8.90;3.10;;;;;;;12.07;76.63;101370.91;5010063;28;20022;-90
2022/05/29 10:09:16;;;;;;;7.13;3.20;;;;;;;12.19;79.12;101374.81;5010567;28;20049;-90
2022/05/29 10:11:45;;;;;;;7.20;3.90;;;;;;;12.53;78.13;101360.63;5009048;28;20563;-92
2022/05/29 10:14:25;;;;;;;8.35;3.60;;;;;;;14.37;73.04;101354.13;5008917;28;20029;-94
2022/05/29 10:16:53;;;;;;;6.10;2.72;;;;;;;17.68;63.97;101340.53;5010500;28;20034;-91
2022/05/29 10:19:41;;;;;;;9.95;4.65;;;;;;;20.77;56.12;101348.47;5010779;28;20028;-94
2022/05/29 10:22:16;;;;;;;3.75;1.90;;;;;;;23.14;47.24;101344.22;5011000;28;20109;-92
2022/05/29 10:24:42;;;;;;;5.80;2.05;;;;;;;24.88;38.65;101339.53;5009303;28;20064;-94
2022/05/29 10:27:25;;;;;;;4.22;1.80;;;;;;;26.17;39.55;101335.75;5010779;28;20503;-94
2022/05/29 10:30:00;;;;;;;6.13;2.10;;;;;;;27.23;38.78;101338.50;5010729;28;20881;-94
2022/05/29 10:32:30;;;;;;;4.43;1.98;;;;;;;27.42;34.14;101336.38;5010082;28;20048;-92
2022/05/29 10:35:13;;;;;;;5.63;2.00;;;;;;;26.95;39.02;101340.72;4996658;28;20137;-94
2022/05/29 10:37:41;;;;;;;16.13;4.07;;;;;;;25.99;37.63;101335.88;4990897;28;20026;-91
2022/05/29 10:40:19;;;;;;;7.10;2.30;;;;;;;27.16;38.36;101334.75;4992144;28;20551;-94
2022/05/29 10:42:47;;;;;;;4.68;2.08;;;;;;;25.83;33.42;101328.53;4991860;28;20348;-93
2022/05/29 10:45:27;;;;;;;3.60;1.90;;;;;;;23.13;41.01;101334.34;4991890;28;20044;-91
2022/05/29 10:48:27;;;;;;;4.47;2.33;;;;;;;20.69;48.91;101347.41;4989805;28;20395;-92
2022/05/29 10:51:14;;;;;;;10.85;3.58;;;;;;;17.79;56.38;101366.72;4989692;28;20473;-89
2022/05/29 10:54:17;;;;;;;6.53;2.10;;;;;;;15.57;60.15;101353.09;4996436;28;20029;-89
2022/05/29 10:57:10;;;;;;;8.00;2.20;;;;;;;13.97;64.28;101371.66;5009226;28;20083;-88
2022/05/29 11:00:05;;;;;;;5.43;1.83;;;;;;;12.51;65.85;101367.00;5008413;28;20061;-88
2022/05/29 11:06:04;;;;;;;6.20;2.13;;;;;;;11.48;76.69;101374.59;4990141;28;20452;-87
2022/05/29 11:09:06;;;;;;;4.82;1.98;;;;;;;11.16;76.49;101368.94;4989873;28;20465;-88
2022/05/29 11:11:55;;;;;;;6.25;1.73;;;;;;;11.02;77.62;101363.34;4989431;28;20030;-89
2022/05/29 11:14:32;;;;;;;3.67;1.92;;;;;;;10.93;80.14;101375.28;5001422;28;20111;-88
2022/05/29 11:17:16;;;;;;;4.07;1.80;;;;;;;10.90;79.41;101377.22;5009765;28;20432;-89
2022/05/29 11:19:53;;;;;;;4.65;2.05;;;;;;;10.98;82.80;101373.28;5009899;28;20399;-89
2022/05/29 11:22:35;;;;;;;3.40;1.98;;;;;;;11.23;84.39;101366.84;5010509;28;20129;-90
2022/05/29 11:25:19;;;;;;;4.15;1.60;;;;;;;11.48;83.39;101369.25;5009606;28;20034;-90
2022/05/29 11:28:14;;;;;;;3.90;1.60;;;;;;;11.70;81.00;101362.00;5011397;28;20065;-90
2022/05/29 11:31:30;;;;;;;1.73;1.63;;;;;;;11.93;79.03;101360.06;5009233;28;20623;-90
2022/05/29 11:34:04;;;;;;;3.70;1.40;;;;;;;12.08;80.23;101350.44;4935323;29;20055;-92
2022/05/29 11:36:52;;;;;;;1.20;1.10;;;;;;;12.43;77.40;101346.03;4928976;29;20498;-91
2022/05/29 11:39:36;;;;;;;1.33;1.10;;;;;;;13.07;77.98;101341.81;4929006;29;20071;-89
2022/05/29 11:42:17;;;;;;;2.15;1.10;;;;;;;13.82;74.64;101349.28;4912881;29;20121;-91
2022/05/29 11:44:54;;;;;;;1.45;1.13;;;;;;;14.11;67.08;101336.06;4925948;29;20074;-91
2022/05/29 11:53:40;;;;;;;2.08;1.25;;;;;;;16.84;61.27;101333.94;4926832;29;20142;-91
2022/05/29 11:56:19;;;;;;;2.80;0.90;;;;;;;15.61;64.61;101343.03;4929691;29;20047;-91
2022/05/29 11:58:53;;;;;;;3.03;1.48;;;;;;;14.47;67.68;101342.91;4929053;29;20447;-93
2022/05/29 12:01:24;;;;;;;1.80;1.40;;;;;;;13.44;71.98;101333.56;4928340;29;20545;-89
2022/05/29 12:04:10;;;;;;;6.80;3.08;;;;;;;13.13;77.92;101342.38;4927116;29;20828;-89
2022/05/29 12:06:41;;;;;;;2.78;1.70;;;;;;;13.00;75.03;101335.06;4928396;29;20044;-92
2022/05/29 12:09:18;;;;;;;4.60;2.42;;;;;;;12.93;74.88;101334.53;4947566;28;20042;-91
2022/05/29 12:12:00;;;;;;;3.60;1.83;;;;;;;13.18;76.82;101329.59;4988587;28;20022;-91
2022/05/29 12:14:35;;;;;;;8.25;4.38;;;;;;;13.41;78.14;101338.22;5004776;28;20031;-90
2022/05/29 12:17:15;;;;;;;13.00;6.35;;;;;;;13.50;71.14;101326.16;5008549;28;20029;-92
2022/05/29 12:19:52;;;;;;;12.95;7.82;;;;;;;13.76;74.96;101330.91;5008158;28;20026;-91
2022/05/29 12:22:23;;;;;;;22.25;11.70;;;;;;;13.87;74.24;101331.16;5008626;28;20402;-88
2022/05/29 12:24:52;;;;;;;23.08;11.98;;;;;;;14.01;70.47;101327.72;5011803;28;20033;-93
2022/05/29 12:27:23;;;;;;;15.00;7.78;;;;;;;14.02;70.23;101323.22;5012907;28;20041;-92